createdAt,value
2023-05-03T00:04:54.741Z,35.30
2023-05-03T00:10:00.176Z,31.70
2023-05-03T00:15:05.225Z,30.70
2023-05-03T00:20:10.128Z,31.40
2023-05-03T00:25:15.599Z,26.50
2023-05-03T00:30:19.995Z,26.00
2023-05-03T00:35:24.346Z,25.20
2023-05-03T00:40:28.900Z,29.20
2023-05-03T00:45:34.691Z,26.70
2023-05-03T00:50:39.987Z,25.30
2023-05-03T00:55:45.895Z,27.70
2023-05-03T01:00:50.037Z,23.60
2023-05-03T01:06:14.268Z,25.10
2023-05-03T01:11:26.956Z,24.90
2023-05-03T01:16:41.551Z,22.10
2023-05-03T01:21:53.205Z,22.50
2023-05-03T01:26:58.404Z,23.20
2023-05-03T01:32:06.394Z,22.30
2023-05-03T01:37:13.182Z,22.60
2023-05-03T01:42:18.086Z,20.90
2023-05-03T01:47:23.842Z,18.20
2023-05-03T01:52:28.367Z,18.50
2023-05-03T01:57:32.932Z,18.40
2023-05-03T02:02:37.028Z,19.00
2023-05-03T02:07:41.401Z,15.50
2023-05-03T02:12:46.081Z,15.30
2023-05-03T02:17:51.574Z,15.30
2023-05-03T02:22:55.649Z,13.40
2023-05-03T02:28:00.145Z,13.60
2023-05-03T02:33:04.589Z,14.50
2023-05-03T02:38:09.092Z,14.20
2023-05-03T02:43:14.026Z,14.30
2023-05-03T02:48:18.777Z,13.90
2023-05-03T02:53:23.425Z,14.50
2023-05-03T02:58:29.301Z,13.30
2023-05-03T03:03:34.294Z,15.30
2023-05-03T03:08:38.703Z,12.80
2023-05-03T03:13:43.644Z,12.00
2023-05-03T03:18:48.312Z,13.70
2023-05-03T03:23:52.843Z,10.70
2023-05-03T03:28:57.388Z,12.20
2023-05-03T03:34:01.720Z,12.50
2023-05-03T03:39:07.089Z,11.00
2023-05-03T03:44:11.743Z,10.00
2023-05-03T03:49:16.177Z,11.10
2023-05-03T03:54:20.528Z,12.70
2023-05-03T03:59:25.593Z,9.80
2023-05-03T04:04:32.154Z,10.80
2023-05-03T04:09:36.830Z,11.40
2023-05-03T04:14:41.296Z,10.60
2023-05-03T04:19:46.316Z,8.80
2023-05-03T04:24:51.070Z,9.10
2023-05-03T04:29:55.400Z,9.90
2023-05-03T04:35:01.990Z,8.80
2023-05-03T04:40:10.153Z,9.80
2023-05-03T04:45:16.091Z,10.80
2023-05-03T04:50:21.060Z,8.20
2023-05-03T04:55:27.024Z,8.20
2023-05-03T05:00:32.092Z,8.20
2023-05-03T05:05:41.432Z,9.60
2023-05-03T05:10:47.420Z,7.80
2023-05-03T05:15:53.920Z,9.10
2023-05-03T05:21:07.660Z,8.30
2023-05-03T05:26:12.757Z,8.60
2023-05-03T05:31:18.191Z,7.90
2023-05-03T05:36:23.537Z,8.20
2023-05-03T05:41:28.190Z,7.90
2023-05-03T05:46:32.583Z,9.20
2023-05-03T05:51:37.487Z,6.70
2023-05-03T05:56:42.023Z,6.50
2023-05-03T06:01:46.923Z,7.30
2023-05-03T06:06:54.868Z,7.10
2023-05-03T06:11:59.238Z,6.70
2023-05-03T06:17:06.453Z,6.10
2023-05-03T06:22:10.495Z,6.40
2023-05-03T06:27:15.016Z,6.90
2023-05-03T06:32:19.757Z,8.20
2023-05-03T06:37:23.907Z,5.60
2023-05-03T06:42:28.565Z,6.80
2023-05-03T06:47:43.570Z,6.70
2023-05-03T06:52:48.187Z,6.00
2023-05-03T06:57:53.546Z,6.00
2023-05-03T07:02:57.771Z,6.20
2023-05-03T07:08:04.188Z,6.60
2023-05-03T07:13:10.054Z,8.90
2023-05-03T07:18:14.437Z,5.90
2023-05-03T07:23:18.926Z,6.60
2023-05-03T07:28:23.833Z,6.10
2023-05-03T07:33:28.018Z,4.90
2023-05-03T07:38:34.630Z,5.40
2023-05-03T07:43:39.034Z,4.90
2023-05-03T07:48:44.306Z,24.60
2023-05-03T07:53:48.370Z,81.70
2023-05-03T07:59:04.557Z,119.80
2023-05-03T08:04:13.462Z,129.10
2023-05-03T08:09:19.519Z,142.00
2023-05-03T08:14:24.339Z,109.20
2023-05-03T08:19:28.775Z,105.30
2023-05-03T08:24:35.569Z,94.50
2023-05-03T08:29:40.526Z,90.50
2023-05-03T08:34:44.756Z,77.90
2023-05-03T08:39:49.604Z,74.60
2023-05-03T08:44:55.296Z,78.60
2023-05-03T08:50:00.279Z,71.90
2023-05-03T08:55:09.148Z,67.90
2023-05-03T09:00:14.669Z,72.70
2023-05-03T09:05:19.705Z,67.90
2023-05-03T09:10:27.421Z,72.00
2023-05-03T09:15:33.189Z,63.40
2023-05-03T09:20:40.285Z,65.90
2023-05-03T09:25:54.553Z,76.80
2023-05-03T09:31:07.813Z,59.50
2023-05-03T09:36:12.063Z,55.00
2023-05-03T09:41:17.324Z,54.20
2023-05-03T09:46:21.947Z,52.20
2023-05-03T09:51:27.796Z,48.50
2023-05-03T09:56:32.553Z,57.80
2023-05-03T10:01:37.072Z,55.00
2023-05-03T10:06:45.156Z,49.90
2023-05-03T10:11:53.645Z,47.30
2023-05-03T10:17:04.955Z,40.50
2023-05-03T10:22:11.643Z,42.30
2023-05-03T10:27:17.731Z,42.40
2023-05-03T10:32:30.553Z,38.70
2023-05-03T10:37:38.856Z,42.10
2023-05-03T10:42:56.616Z,35.70
2023-05-03T10:48:12.947Z,32.30
2023-05-03T10:53:37.956Z,32.20
2023-05-03T10:58:47.431Z,37.60
2023-05-03T11:04:11.848Z,49.60
2023-05-03T11:09:18.219Z,34.80
2023-05-03T11:14:22.440Z,28.20
2023-05-03T11:19:52.198Z,33.10
2023-05-03T11:24:57.492Z,27.60
2023-05-03T11:30:01.643Z,32.00
2023-05-03T11:35:09.794Z,18.80
2023-05-03T11:40:17.736Z,23.20
2023-05-03T11:45:30.324Z,20.30
2023-05-03T11:50:54.722Z,22.00
2023-05-03T11:55:58.758Z,22.80
2023-05-03T12:01:04.229Z,18.60
2023-05-03T12:06:09.971Z,18.90
2023-05-03T12:11:15.302Z,22.30
2023-05-03T12:16:23.316Z,20.70
2023-05-03T12:26:57.578Z,17.10
2023-05-03T12:32:04.340Z,17.20
2023-05-03T12:37:11.770Z,17.70
2023-05-03T12:42:16.443Z,15.60
2023-05-03T12:47:27.925Z,15.30
2023-05-03T12:52:37.822Z,14.10
2023-05-03T12:57:45.753Z,12.90
2023-05-03T13:08:00.732Z,16.90
2023-05-03T13:13:11.720Z,14.20
2023-05-03T13:18:16.833Z,16.50
2023-05-03T13:23:21.314Z,11.20
2023-05-03T13:28:25.455Z,12.30
2023-05-03T13:33:30.000Z,11.40
2023-05-03T13:38:34.426Z,13.80
2023-05-03T13:43:38.355Z,12.30
2023-05-03T13:48:43.378Z,12.80
2023-05-03T13:53:48.077Z,14.20
2023-05-03T13:58:52.453Z,14.00
2023-05-03T14:03:56.789Z,27.70
2023-05-03T14:09:02.425Z,14.40
2023-05-03T14:14:07.350Z,16.30
2023-05-03T14:19:12.348Z,17.00
2023-05-03T14:24:17.482Z,13.90
2023-05-03T14:29:23.464Z,13.10
2023-05-03T14:34:29.446Z,14.60
2023-05-03T14:39:33.988Z,93.80
2023-05-03T14:44:38.259Z,206.30
2023-05-03T14:49:42.461Z,205.00
2023-05-03T14:54:47.448Z,330.80
2023-05-03T14:59:52.924Z,186.70
2023-05-03T15:04:57.331Z,169.40
2023-05-03T15:10:06.670Z,149.70
2023-05-03T15:15:12.602Z,107.10
2023-05-03T15:20:17.203Z,107.40
2023-05-03T15:25:21.643Z,112.90
2023-05-03T15:30:26.212Z,91.60
2023-05-03T15:35:31.588Z,94.40
2023-05-03T15:40:36.527Z,83.10
2023-05-03T15:45:40.638Z,84.70
2023-05-03T15:50:45.516Z,88.30
2023-05-03T15:55:50.356Z,78.70
2023-05-03T16:00:56.118Z,69.90
2023-05-03T16:06:02.110Z,49.80
2023-05-03T16:11:08.521Z,47.10
2023-05-03T16:16:13.926Z,47.90
2023-05-03T16:21:18.700Z,45.20
2023-05-03T16:26:23.143Z,45.80
2023-05-03T16:31:30.597Z,29.90
2023-05-03T16:36:43.822Z,35.40
2023-05-03T16:41:51.053Z,30.10
2023-05-03T16:46:55.949Z,27.60
2023-05-03T16:52:00.189Z,30.50
2023-05-03T16:57:05.217Z,25.10
2023-05-03T17:02:09.464Z,28.80
2023-05-03T17:07:16.149Z,32.10
2023-05-03T17:12:21.925Z,25.20
2023-05-03T17:17:26.413Z,25.40
2023-05-03T17:22:30.624Z,26.80
2023-05-03T17:27:34.964Z,23.40
2023-05-03T17:32:39.468Z,22.30
2023-05-03T17:37:46.298Z,21.40
2023-05-03T17:42:51.052Z,23.60
2023-05-03T17:47:55.692Z,20.80
2023-05-03T17:53:01.156Z,25.30
2023-05-03T17:58:06.876Z,21.00
2023-05-03T18:03:13.638Z,18.20
2023-05-03T18:08:19.851Z,21.10
2023-05-03T18:13:28.598Z,21.10
2023-05-03T18:18:32.769Z,19.10
2023-05-03T18:23:37.333Z,16.90
2023-05-03T18:28:43.574Z,16.90
2023-05-03T18:33:53.166Z,25.00
2023-05-03T18:38:58.705Z,19.30
2023-05-03T18:44:10.673Z,14.60
2023-05-03T18:49:19.753Z,15.90
2023-05-03T18:54:24.956Z,15.80
2023-05-03T18:59:32.684Z,16.00
2023-05-03T19:04:38.739Z,11.80
2023-05-03T19:09:44.548Z,250.70
2023-05-03T19:14:51.580Z,205.50
2023-05-03T19:19:56.169Z,173.30
2023-05-03T19:25:04.190Z,156.10
2023-05-03T19:30:12.185Z,135.40
2023-05-03T19:35:20.156Z,126.20
2023-05-03T19:40:26.677Z,122.00
2023-05-03T19:45:34.116Z,115.10
2023-05-03T19:50:39.992Z,119.70
2023-05-03T19:56:04.321Z,110.20
2023-05-03T20:01:09.581Z,106.60
2023-05-03T20:06:15.215Z,108.90
2023-05-03T20:11:20.882Z,101.60
2023-05-03T20:16:34.633Z,92.40
2023-05-03T20:21:39.234Z,93.90
2023-05-03T20:26:48.261Z,84.50
2023-05-03T20:31:54.079Z,64.70
2023-05-03T20:36:58.789Z,71.20
2023-05-03T20:42:04.172Z,101.40
2023-05-03T20:47:08.379Z,222.50
2023-05-03T20:52:13.331Z,228.50
2023-05-03T20:57:17.473Z,217.00
2023-05-03T21:02:23.096Z,168.80
2023-05-03T21:07:29.328Z,172.70
2023-05-03T21:12:33.829Z,164.70
2023-05-03T21:17:38.576Z,146.20
2023-05-03T21:22:43.101Z,152.80
2023-05-03T21:27:47.930Z,154.80
2023-05-03T21:32:54.755Z,141.60
2023-05-03T21:38:00.441Z,141.90
2023-05-03T21:43:06.559Z,142.50
2023-05-03T21:48:11.329Z,130.40
2023-05-03T21:53:17.191Z,131.90
2023-05-03T21:58:21.924Z,136.00
2023-05-03T22:03:27.007Z,122.20
2023-05-03T22:08:31.642Z,118.30
2023-05-03T22:13:50.284Z,119.10
2023-05-03T22:19:02.814Z,114.80
2023-05-03T22:24:09.514Z,111.30
2023-05-03T22:29:14.091Z,115.10
2023-05-03T22:34:19.948Z,108.30
2023-05-03T22:39:25.405Z,107.10
2023-05-03T22:44:29.738Z,107.90
2023-05-03T22:49:33.881Z,104.80
2023-05-03T22:54:39.323Z,101.20
2023-05-03T22:59:47.570Z,98.10
2023-05-03T23:04:51.712Z,98.50
2023-05-03T23:10:04.304Z,97.90
2023-05-03T23:15:09.034Z,99.90
2023-05-03T23:20:13.750Z,92.60
2023-05-03T23:25:18.188Z,84.70
2023-05-03T23:30:22.839Z,87.80
2023-05-03T23:35:27.579Z,79.10
2023-05-03T23:40:32.448Z,81.80
2023-05-03T23:45:38.064Z,82.90
2023-05-03T23:50:42.638Z,80.40
2023-05-03T23:55:46.887Z,84.70
